createdAt,value
2019-03-20T00:01:29.041Z,5.20
2019-03-20T00:05:33.952Z,6.93
2019-03-20T00:09:44.659Z,5.30
2019-03-20T00:13:49.948Z,5.77
2019-03-20T00:17:54.879Z,5.30
2019-03-20T00:21:59.766Z,5.80
2019-03-20T00:26:10.498Z,5.10
2019-03-20T00:30:15.982Z,5.20
2019-03-20T00:34:20.874Z,5.60
2019-03-20T00:38:30.034Z,5.40
2019-03-20T00:42:35.598Z,5.57
2019-03-20T00:46:40.658Z,4.83
2019-03-20T00:50:45.565Z,5.60
2019-03-20T00:54:50.447Z,4.83
2019-03-20T00:58:56.651Z,6.23
2019-03-20T01:03:01.605Z,4.40
2019-03-20T01:07:06.516Z,4.30
2019-03-20T01:11:12.765Z,4.30
2019-03-20T01:15:25.577Z,4.20
2019-03-20T01:19:30.498Z,3.77
2019-03-20T01:23:35.468Z,4.70
2019-03-20T01:27:40.624Z,5.03
2019-03-20T01:35:56.533Z,4.40
2019-03-20T01:40:01.493Z,5.30
2019-03-20T01:44:06.446Z,3.83
2019-03-20T01:48:11.355Z,3.83
2019-03-20T01:52:16.219Z,3.97
2019-03-20T01:56:34.487Z,4.33
2019-03-20T02:00:39.438Z,6.67
2019-03-20T02:04:47.501Z,6.80
2019-03-20T02:08:52.386Z,5.73
2019-03-20T02:12:58.707Z,6.20
2019-03-20T02:17:10.030Z,5.00
2019-03-20T02:21:14.905Z,4.37
2019-03-20T02:25:19.825Z,5.27
2019-03-20T02:29:37.495Z,3.70
2019-03-20T02:33:42.412Z,4.40
2019-03-20T02:37:47.334Z,4.30
2019-03-20T02:41:52.614Z,4.20
2019-03-20T02:45:57.551Z,4.90
2019-03-20T02:50:02.474Z,3.87
2019-03-20T02:54:07.724Z,4.40
2019-03-20T02:58:12.638Z,4.50
2019-03-20T03:02:17.700Z,4.47
2019-03-20T03:06:28.514Z,3.80
2019-03-20T03:10:33.443Z,5.00
2019-03-20T03:14:38.501Z,3.70
2019-03-20T03:18:43.368Z,3.07
2019-03-20T03:22:48.284Z,3.07
2019-03-20T03:26:55.361Z,3.93
2019-03-20T03:31:00.644Z,3.47
2019-03-20T03:35:06.098Z,2.53
2019-03-20T03:39:18.305Z,3.67
2019-03-20T03:43:24.490Z,3.37
2019-03-20T03:47:32.904Z,3.00
2019-03-20T03:51:38.108Z,2.77
2019-03-20T03:55:43.007Z,4.13
2019-03-20T03:59:58.268Z,3.33
2019-03-20T04:04:03.237Z,3.50
2019-03-20T04:08:21.449Z,3.37
2019-03-20T04:12:26.356Z,3.60
2019-03-20T04:16:31.272Z,2.60
2019-03-20T04:20:36.186Z,2.30
2019-03-20T04:24:48.373Z,3.67
2019-03-20T04:28:53.307Z,3.80
2019-03-20T04:32:58.439Z,3.20
2019-03-20T04:37:03.515Z,3.93
2019-03-20T04:41:08.590Z,3.10
2019-03-20T04:45:13.676Z,3.60
2019-03-20T04:49:20.055Z,3.23
2019-03-20T04:53:24.962Z,2.90
2019-03-20T04:57:29.854Z,3.10
2019-03-20T05:01:34.855Z,3.30
2019-03-20T05:05:40.161Z,4.05
2019-03-20T05:09:45.114Z,3.57
2019-03-20T05:13:50.098Z,2.20
2019-03-20T05:17:55.143Z,2.73
2019-03-20T05:22:00.026Z,3.33
2019-03-20T05:26:05.135Z,3.10
2019-03-20T05:30:11.028Z,3.37
2019-03-20T05:34:15.914Z,3.57
2019-03-20T05:38:20.974Z,4.47
2019-03-20T05:42:25.885Z,3.70
2019-03-20T05:46:31.002Z,4.27
2019-03-20T05:50:35.921Z,3.63
2019-03-20T05:54:42.872Z,2.63
2019-03-20T05:58:50.557Z,3.60
2019-03-20T06:02:57.523Z,2.77
2019-03-20T06:07:06.418Z,3.80
2019-03-20T06:11:15.060Z,4.10
2019-03-20T06:15:21.590Z,3.70
2019-03-20T06:19:27.835Z,5.30
2019-03-20T06:23:36.246Z,3.97
2019-03-20T06:27:41.896Z,4.27
2019-03-20T06:31:49.737Z,6.93
2019-03-20T06:35:55.222Z,5.03
2019-03-20T06:40:01.620Z,3.37
2019-03-20T06:44:09.916Z,4.83
2019-03-20T06:48:15.957Z,5.50
2019-03-20T06:52:22.245Z,5.83
2019-03-20T06:56:28.733Z,5.33
2019-03-20T07:01:02.075Z,3.90
2019-03-20T07:05:34.243Z,2.33
2019-03-20T07:10:11.596Z,2.00
2019-03-20T07:14:17.071Z,3.13
2019-03-20T07:18:24.191Z,1.80
2019-03-20T07:22:31.264Z,1.83
2019-03-20T07:26:39.219Z,1.60
2019-03-20T07:30:45.962Z,1.43
2019-03-20T07:34:53.645Z,1.97
2019-03-20T07:38:59.680Z,1.33
2019-03-20T07:43:09.363Z,1.33
2019-03-20T07:47:14.859Z,1.67
2019-03-20T07:51:20.083Z,1.57
2019-03-20T07:55:27.452Z,1.43
2019-03-20T07:59:33.627Z,1.30
2019-03-20T08:03:43.344Z,1.40
2019-03-20T08:07:51.093Z,1.70
2019-03-20T08:11:57.782Z,1.73
2019-03-20T08:16:10.342Z,1.97
2019-03-20T08:20:16.392Z,2.17
2019-03-20T08:24:22.860Z,1.90
2019-03-20T08:28:30.303Z,1.83
2019-03-20T08:32:38.701Z,2.33
2019-03-20T08:36:43.630Z,1.80
2019-03-20T08:40:51.898Z,1.90
2019-03-20T08:44:59.061Z,1.37
2019-03-20T08:49:05.494Z,1.40
2019-03-20T08:53:11.423Z,1.70
2019-03-20T08:57:18.301Z,1.40
2019-03-20T09:01:28.483Z,1.37
2019-03-20T09:05:32.725Z,1.30
2019-03-20T09:09:40.558Z,1.60
2019-03-20T09:13:45.560Z,1.20
2019-03-20T09:17:52.729Z,1.33
2019-03-20T09:22:00.673Z,1.20
2019-03-20T09:26:07.488Z,1.20
2019-03-20T09:30:34.192Z,1.20
2019-03-20T09:34:41.049Z,1.97
2019-03-20T09:38:48.134Z,1.43
2019-03-20T09:42:57.736Z,1.40
2019-03-20T09:47:06.803Z,1.37
2019-03-20T09:51:13.753Z,1.37
2019-03-20T09:55:22.167Z,1.30
2019-03-20T09:59:29.154Z,1.37
2019-03-20T10:03:37.658Z,0.90
2019-03-20T10:07:44.789Z,1.53
2019-03-20T10:11:50.633Z,1.53
2019-03-20T10:15:57.648Z,1.83
2019-03-20T10:20:03.474Z,1.10
2019-03-20T10:24:20.696Z,1.43
2019-03-20T10:28:27.712Z,1.90
2019-03-20T10:32:34.153Z,1.23
2019-03-20T10:36:41.473Z,0.97
2019-03-20T10:40:51.126Z,1.20
2019-03-20T10:44:56.326Z,1.83
2019-03-20T10:49:02.672Z,1.37
2019-03-20T10:53:10.527Z,1.70
2019-03-20T10:57:16.553Z,1.20
2019-03-20T11:01:25.391Z,1.10
2019-03-20T11:05:32.694Z,1.63
2019-03-20T11:09:38.015Z,1.00
2019-03-20T11:13:46.062Z,1.80
2019-03-20T11:17:53.842Z,1.73
2019-03-20T11:22:00.449Z,1.00
2019-03-20T11:26:06.148Z,1.73
2019-03-20T11:30:24.180Z,1.20
2019-03-20T11:34:30.131Z,1.87
2019-03-20T11:38:35.712Z,1.33
2019-03-20T11:42:43.579Z,1.50
2019-03-20T11:46:54.500Z,1.60
2019-03-20T11:51:02.268Z,1.50
2019-03-20T11:55:09.898Z,1.50
2019-03-20T11:59:15.929Z,1.17
2019-03-20T12:03:22.205Z,1.63
2019-03-20T12:07:30.560Z,1.30
2019-03-20T12:11:45.694Z,1.60
2019-03-20T12:15:51.725Z,1.25
2019-03-20T12:19:59.735Z,1.00
2019-03-20T12:24:06.665Z,1.40
2019-03-20T12:28:13.727Z,1.80
2019-03-20T12:32:23.028Z,1.73
2019-03-20T12:36:29.576Z,1.40
2019-03-20T12:40:40.799Z,1.13
2019-03-20T12:44:49.140Z,1.47
2019-03-20T12:48:54.994Z,1.53
2019-03-20T12:53:03.825Z,2.30
2019-03-20T12:57:13.371Z,1.63
2019-03-20T13:01:21.327Z,1.57
2019-03-20T13:05:30.557Z,1.63
2019-03-20T13:09:36.386Z,1.67
2019-03-20T13:13:43.967Z,1.47
2019-03-20T13:17:51.273Z,1.60
2019-03-20T13:21:57.798Z,1.80
2019-03-20T13:26:04.686Z,1.20
2019-03-20T13:30:28.911Z,1.27
2019-03-20T13:34:41.087Z,1.37
2019-03-20T13:38:47.527Z,1.40
2019-03-20T13:42:52.859Z,1.47
2019-03-20T13:46:58.573Z,1.40
2019-03-20T13:51:04.625Z,1.47
2019-03-20T13:55:11.725Z,1.37
2019-03-20T13:59:19.434Z,1.37
2019-03-20T14:03:26.673Z,1.17
2019-03-20T14:07:35.072Z,1.30
2019-03-20T14:11:40.700Z,1.40
2019-03-20T14:15:46.741Z,1.63
2019-03-20T14:20:13.756Z,1.90
2019-03-20T14:24:20.817Z,1.33
2019-03-20T14:28:30.603Z,1.50
2019-03-20T14:32:38.936Z,1.50
2019-03-20T14:36:47.823Z,1.30
2019-03-20T14:40:59.449Z,1.73
2019-03-20T14:45:11.126Z,2.00
2019-03-20T14:49:17.167Z,1.90
2019-03-20T14:53:24.943Z,1.70
2019-03-20T14:57:31.731Z,2.03
2019-03-20T15:01:40.469Z,1.70
2019-03-20T15:05:45.967Z,1.30
2019-03-20T15:09:53.267Z,1.30
2019-03-20T15:14:05.273Z,2.00
2019-03-20T15:18:15.282Z,1.93
2019-03-20T15:22:25.855Z,2.53
2019-03-20T15:26:33.644Z,1.63
2019-03-20T15:30:41.198Z,2.03
2019-03-20T15:34:53.616Z,2.93
2019-03-20T15:39:10.292Z,1.50
2019-03-20T15:43:16.542Z,2.13
2019-03-20T15:47:23.614Z,1.83
2019-03-20T15:51:31.040Z,1.40
2019-03-20T15:55:41.667Z,1.63
2019-03-20T15:59:48.072Z,2.00
2019-03-20T16:04:00.214Z,2.27
2019-03-20T16:08:07.498Z,1.80
2019-03-20T16:12:13.590Z,1.90
2019-03-20T16:16:22.158Z,1.80
2019-03-20T16:20:28.518Z,1.80
2019-03-20T16:24:36.527Z,1.60
2019-03-20T16:28:43.541Z,2.10
2019-03-20T16:32:52.855Z,3.73
2019-03-20T16:36:59.107Z,2.20
2019-03-20T16:41:05.704Z,1.80
2019-03-20T16:45:17.051Z,1.80
2019-03-20T16:49:24.669Z,2.60
2019-03-20T16:53:30.482Z,1.93
2019-03-20T16:57:35.929Z,1.67
2019-03-20T17:01:42.851Z,1.90
2019-03-20T17:05:49.943Z,1.97
2019-03-20T17:09:55.519Z,1.50
2019-03-20T17:14:05.233Z,1.67
2019-03-20T17:18:13.095Z,2.00
2019-03-20T17:22:19.095Z,1.60
2019-03-20T17:26:25.879Z,2.00
2019-03-20T17:30:37.538Z,1.57
2019-03-20T17:34:42.928Z,2.10
2019-03-20T17:38:48.168Z,1.80
2019-03-20T17:42:55.062Z,1.40
2019-03-20T17:47:00.327Z,2.40
2019-03-20T17:51:06.880Z,1.67
2019-03-20T17:55:14.372Z,2.13
2019-03-20T17:59:21.669Z,1.90
2019-03-20T18:03:29.849Z,1.60
2019-03-20T18:07:38.256Z,2.30
2019-03-20T18:11:47.637Z,2.50
2019-03-20T18:15:53.569Z,2.00
2019-03-20T18:20:01.580Z,2.77
2019-03-20T18:24:09.086Z,1.70
2019-03-20T18:28:18.087Z,2.13
2019-03-20T18:32:25.136Z,2.50
2019-03-20T18:36:35.541Z,2.40
2019-03-20T18:40:42.460Z,3.00
2019-03-20T18:44:48.548Z,2.03
2019-03-20T18:48:55.923Z,2.97
2019-03-20T18:53:00.892Z,3.37
2019-03-20T18:57:08.378Z,3.47
2019-03-20T19:01:15.216Z,3.10
2019-03-20T19:05:27.376Z,3.60
2019-03-20T19:09:32.884Z,3.07
2019-03-20T19:13:39.384Z,2.50
2019-03-20T19:17:47.258Z,3.60
2019-03-20T19:22:01.298Z,3.87
2019-03-20T19:26:07.510Z,4.90
2019-03-20T19:30:16.477Z,6.37
2019-03-20T19:34:22.225Z,5.77
2019-03-20T19:38:34.961Z,6.67
2019-03-20T19:42:40.607Z,5.10
2019-03-20T19:46:48.103Z,5.20
2019-03-20T19:50:56.131Z,5.40
2019-03-20T19:55:03.073Z,5.17
2019-03-20T19:59:08.990Z,5.37
2019-03-20T20:03:18.036Z,3.73
2019-03-20T20:07:29.685Z,6.50
2019-03-20T20:11:36.847Z,5.20
2019-03-20T20:15:46.935Z,5.70
2019-03-20T20:19:52.285Z,5.47
2019-03-20T20:23:58.429Z,3.00
2019-03-20T20:28:04.390Z,4.10
2019-03-20T20:32:09.486Z,4.10
2019-03-20T20:36:14.418Z,4.13
2019-03-20T20:40:19.437Z,5.03
2019-03-20T20:44:24.355Z,4.63
2019-03-20T20:48:30.367Z,5.57
2019-03-20T20:52:35.513Z,3.43
2019-03-20T20:56:40.626Z,4.53
2019-03-20T21:00:46.428Z,4.87
2019-03-20T21:04:52.948Z,5.30
2019-03-20T21:08:58.224Z,4.30
2019-03-20T21:13:03.409Z,4.80
2019-03-20T21:17:12.529Z,3.40
2019-03-20T21:21:18.327Z,5.77
2019-03-20T21:25:24.434Z,4.30
2019-03-20T21:29:52.743Z,5.10
2019-03-20T21:34:34.092Z,4.70
2019-03-20T21:38:40.483Z,5.40
2019-03-20T21:43:20.827Z,5.03
2019-03-20T21:47:33.573Z,5.03
2019-03-20T21:51:39.283Z,4.67
2019-03-20T21:56:24.102Z,5.73
2019-03-20T22:01:04.908Z,5.17
2019-03-20T22:05:23.318Z,5.00
2019-03-20T22:09:57.099Z,5.13
2019-03-20T22:14:06.914Z,4.50
2019-03-20T22:19:00.314Z,5.73
2019-03-20T22:23:46.218Z,6.10
2019-03-20T22:28:17.279Z,3.40
2019-03-20T22:33:11.230Z,4.90
2019-03-20T22:37:17.479Z,5.30
2019-03-20T22:41:44.174Z,5.70
2019-03-20T22:46:40.923Z,5.83
2019-03-20T22:51:00.744Z,5.20
2019-03-20T22:55:50.182Z,5.30
2019-03-20T22:59:55.742Z,5.90
2019-03-20T23:04:06.354Z,5.63
2019-03-20T23:08:12.930Z,6.70
2019-03-20T23:12:18.795Z,6.23
2019-03-20T23:16:24.851Z,6.60
2019-03-20T23:20:31.019Z,5.40
2019-03-20T23:24:36.557Z,6.47
2019-03-20T23:28:42.326Z,4.67
2019-03-20T23:32:48.257Z,5.20
2019-03-20T23:36:53.970Z,5.63
2019-03-20T23:40:59.432Z,4.53
2019-03-20T23:45:05.601Z,3.47
2019-03-20T23:49:14.149Z,5.03
2019-03-20T23:53:20.077Z,4.37
2019-03-20T23:57:25.493Z,4.27
